Philadelphia, Pennsylvania
Traffic Map
Current Weather Conditions
Philadelphia, Pennsylvania
Broken Clouds
Broken Clouds
12°
Feels Like: 12°
Wind Chill: 12° Ceiling: 5000
Heat Index: 12° Visibility: 10mi
Dew Point: -1° Wind: 24mph
Humidity: 41% Direction: 290° (WNW)
Pressure: 29.61in Gusts: 31mph
Raw Report DataKPHL 191754Z 29021G27KT 10SM BKN050 12/M01 A2961 RMK AO2 PK WND 28030/1741 SLP025 T01171011 10122 20100 51019
Traffic Incident Summary
Active as of:
Severity:
Category:
InformationThere was an issue retrieving the traffic information for this location. Please try a different location or try again shortly.
Advertisements